Time;durP1;ratioP1;P1;durP2;ratioP2;P2;SDS_P1;SDS_P2;PMS_P1;PMS_P2;Temp;Humidity;BMP_temperature;BMP_pressure;BME280_temperature;BME280_humidity;BME280_pressure;Samples;Min_cycle;Max_cycle;Signal;HPM_P1;HPM_P2
2022/05/13 00:01:14;;;;;;;2.70;2.50;;;;;;;;;;4916601;29;20693;-77
2022/05/13 00:03:40;;;;;;;3.10;2.80;;;;;;;;;;4915468;29;20182;-77
2022/05/13 00:06:06;;;;;;;3.07;2.70;;;;;;;;;;4915383;29;20265;-77
2022/05/13 00:08:33;;;;;;;3.50;2.70;;;;;;;;;;4899505;29;20211;-77
2022/05/13 00:11:00;;;;;;;4.33;2.70;;;;;;;;;;4916353;29;20202;-77
2022/05/13 00:13:26;;;;;;;3.87;2.67;;;;;;;;;;4915233;29;20557;-77
2022/05/13 00:15:52;;;;;;;5.37;2.83;;;;;;;;;;4899692;29;20227;-77
2022/05/13 00:18:19;;;;;;;2.60;2.40;;;;;;;;;;4923005;23;20237;-77
2022/05/13 00:20:45;;;;;;;3.00;2.70;;;;;;;;;;4898912;29;20211;-77
2022/05/13 00:23:11;;;;;;;4.00;2.70;;;;;;;;;;4883980;29;20200;-77
2022/05/13 00:25:37;;;;;;;4.17;2.70;;;;;;;;;;4899217;29;20179;-77
2022/05/13 00:28:05;;;;;;;3.60;2.77;;;;;;;;;;4899184;29;20559;-77
2022/05/13 00:30:32;;;;;;;3.33;2.80;;;;;;;;;;4899151;29;20217;-77
2022/05/13 00:32:58;;;;;;;4.73;2.90;;;;;;;;;;4898975;29;20705;-77
2022/05/13 00:35:24;;;;;;;2.93;2.60;;;;;;;;;;4883934;29;20209;-77
2022/05/13 00:37:50;;;;;;;2.97;2.63;;;;;;;;;;4899365;29;20242;-77
2022/05/13 00:40:20;;;;;;;3.20;3.00;;;;;;;;;;4883813;29;20560;-77
2022/05/13 00:42:46;;;;;;;3.07;2.77;;;;;;;;;;4915828;29;20174;-77
2022/05/13 00:45:13;;;;;;;4.37;2.87;;;;;;;;;;4883706;29;20673;-77
2022/05/13 00:47:39;;;;;;;3.33;2.47;;;;;;;;;;4898970;29;20183;-77
2022/05/13 00:50:06;;;;;;;3.93;2.90;;;;;;;;;;4883576;29;20209;-77
2022/05/13 00:52:33;;;;;;;3.73;2.87;;;;;;;;;;4898891;29;20210;-77
2022/05/13 00:55:02;;;;;;;3.73;2.93;;;;;;;;;;4899108;29;20185;-77
2022/05/13 00:57:28;;;;;;;3.23;2.70;;;;;;;;;;4899134;29;20261;-77
2022/05/13 00:59:55;;;;;;;3.30;2.53;;;;;;;;;;4883592;29;20225;-77
2022/05/13 01:02:21;;;;;;;2.80;2.57;;;;;;;;;;4915670;29;20178;-77
2022/05/13 01:04:48;;;;;;;3.27;2.97;;;;;;;;;;4898991;29;20182;-77
2022/05/13 01:07:18;;;;;;;4.93;2.80;;;;;;;;;;4899237;29;20215;-77
2022/05/13 01:09:46;;;;;;;2.80;2.53;;;;;;;;;;4902234;29;20209;-77
2022/05/13 01:12:14;;;;;;;3.67;2.83;;;;;;;;;;4902463;29;20214;-77
2022/05/13 01:15:01;;;;;;;3.60;2.83;;;;;;;;;;4902797;29;20178;-77
2022/05/13 01:20:21;;;;;;;4.03;2.77;;;;;;;;;;4919726;29;20268;-77
2022/05/13 01:22:49;;;;;;;4.07;2.70;;;;;;;;;;4902156;29;20179;-77
2022/05/13 01:25:17;;;;;;;3.30;3.00;;;;;;;;;;4902430;29;20188;-77
2022/05/13 01:27:44;;;;;;;3.13;2.83;;;;;;;;;;4902375;29;20717;-77
2022/05/13 01:30:11;;;;;;;4.17;2.90;;;;;;;;;;4902554;29;20285;-77
2022/05/13 01:32:37;;;;;;;2.80;2.60;;;;;;;;;;4886592;29;20654;-77
2022/05/13 01:35:05;;;;;;;3.00;2.70;;;;;;;;;;4902453;29;20194;-77
2022/05/13 01:37:32;;;;;;;4.77;3.00;;;;;;;;;;4887017;29;20561;-77
2022/05/13 01:39:58;;;;;;;3.30;3.00;;;;;;;;;;4886629;29;20825;-77
2022/05/13 01:42:24;;;;;;;3.20;2.40;;;;;;;;;;4901896;29;20658;-77
2022/05/13 01:44:50;;;;;;;3.57;2.90;;;;;;;;;;4902111;29;20271;-77
2022/05/13 01:47:16;;;;;;;3.57;2.70;;;;;;;;;;4886577;29;20202;-77
2022/05/13 01:49:43;;;;;;;4.30;2.87;;;;;;;;;;4886596;29;20291;-77
2022/05/13 01:52:09;;;;;;;3.73;2.90;;;;;;;;;;4901667;29;20213;-77
2022/05/13 01:54:35;;;;;;;2.83;2.60;;;;;;;;;;4886476;29;20184;-77
2022/05/13 01:57:01;;;;;;;2.87;2.50;;;;;;;;;;4901916;29;20182;-77
2022/05/13 01:59:27;;;;;;;3.53;2.80;;;;;;;;;;4886397;29;20207;-77
2022/05/13 02:01:53;;;;;;;3.20;2.80;;;;;;;;;;4901699;29;20250;-77
2022/05/13 02:04:19;;;;;;;2.97;2.67;;;;;;;;;;4886455;29;20186;-77
2022/05/13 02:06:45;;;;;;;3.20;2.90;;;;;;;;;;4886230;29;20197;-77
2022/05/13 02:09:11;;;;;;;3.97;2.90;;;;;;;;;;4886065;29;20615;-77
2022/05/13 02:11:37;;;;;;;2.90;2.53;;;;;;;;;;4901500;29;20216;-77
2022/05/13 02:14:04;;;;;;;3.50;3.17;;;;;;;;;;4901705;29;20209;-77
2022/05/13 02:16:30;;;;;;;3.03;2.80;;;;;;;;;;4918574;29;20177;-77
2022/05/13 02:18:57;;;;;;;3.80;2.70;;;;;;;;;;4885778;29;20226;-77
2022/05/13 02:21:24;;;;;;;2.93;2.73;;;;;;;;;;4918332;29;20680;-77
2022/05/13 02:23:50;;;;;;;4.47;2.90;;;;;;;;;;4918147;29;20178;-77
2022/05/13 02:26:17;;;;;;;3.03;2.73;;;;;;;;;;4901580;29;20637;-77
2022/05/13 02:28:44;;;;;;;3.13;2.67;;;;;;;;;;4886132;29;20741;-77
2022/05/13 02:31:10;;;;;;;3.00;2.70;;;;;;;;;;4901386;29;20215;-77
2022/05/13 02:33:37;;;;;;;3.43;3.13;;;;;;;;;;4918022;29;20645;-77
2022/05/13 02:36:03;;;;;;;3.27;2.80;;;;;;;;;;4886108;29;20752;-77
2022/05/13 02:38:30;;;;;;;3.00;2.80;;;;;;;;;;4901116;29;20178;-77
2022/05/13 02:41:14;;;;;;;3.97;2.93;;;;;;;;;;4901422;29;20189;-77
2022/05/13 02:43:43;;;;;;;3.73;2.70;;;;;;;;;;4903632;29;20552;-77
2022/05/13 02:46:10;;;;;;;3.07;2.87;;;;;;;;;;4918091;29;20174;-77
2022/05/13 02:48:38;;;;;;;4.13;2.67;;;;;;;;;;4900946;29;20207;-77
2022/05/13 02:51:04;;;;;;;2.80;2.53;;;;;;;;;;4900780;29;20210;-77
2022/05/13 02:53:30;;;;;;;3.80;2.80;;;;;;;;;;4900946;29;20175;-77
2022/05/13 02:55:56;;;;;;;3.10;2.80;;;;;;;;;;4885382;29;20668;-77
2022/05/13 02:58:22;;;;;;;3.00;2.70;;;;;;;;;;4900863;29;20181;-77
2022/05/13 03:00:48;;;;;;;4.03;3.20;;;;;;;;;;4885267;29;20601;-77
2022/05/13 03:03:14;;;;;;;3.13;2.93;;;;;;;;;;4917633;29;20197;-77
2022/05/13 03:05:41;;;;;;;3.13;2.80;;;;;;;;;;4885107;29;20662;-77
2022/05/13 03:08:07;;;;;;;4.00;2.83;;;;;;;;;;4900670;29;20230;-77
2022/05/13 03:10:36;;;;;;;3.23;2.90;;;;;;;;;;4917582;29;20283;-77
2022/05/13 03:13:02;;;;;;;2.93;2.73;;;;;;;;;;4900372;29;20193;-77
2022/05/13 03:15:28;;;;;;;3.60;3.20;;;;;;;;;;4900810;29;20182;-77
2022/05/13 03:17:58;;;;;;;2.93;2.70;;;;;;;;;;4900474;29;20266;-77
2022/05/13 03:20:24;;;;;;;3.40;3.10;;;;;;;;;;4900213;29;20218;-77
2022/05/13 03:22:51;;;;;;;3.47;3.03;;;;;;;;;;4900133;29;20185;-77
2022/05/13 03:25:18;;;;;;;4.50;3.00;;;;;;;;;;4900575;29;20179;-77
2022/05/13 03:27:44;;;;;;;2.70;2.50;;;;;;;;;;4900309;29;20713;-77
2022/05/13 03:30:11;;;;;;;3.30;3.10;;;;;;;;;;4900377;29;20194;-77
2022/05/13 03:32:37;;;;;;;3.07;2.60;;;;;;;;;;4883840;29;20290;-77
2022/05/13 03:35:07;;;;;;;4.70;3.00;;;;;;;;;;4900314;29;20246;-77
2022/05/13 03:37:33;;;;;;;4.40;3.23;;;;;;;;;;4884804;29;20214;-77
2022/05/13 03:39:59;;;;;;;3.73;2.83;;;;;;;;;;4884750;29;20230;-77
2022/05/13 03:42:26;;;;;;;3.37;2.87;;;;;;;;;;4900073;29;20246;-77
2022/05/13 03:44:52;;;;;;;3.60;2.93;;;;;;;;;;4884470;29;20182;-77
2022/05/13 03:47:18;;;;;;;3.30;3.00;;;;;;;;;;4916832;29;20638;-77
2022/05/13 03:49:44;;;;;;;3.90;3.20;;;;;;;;;;4916721;29;20199;-77
2022/05/13 03:52:11;;;;;;;3.33;2.90;;;;;;;;;;4899809;29;20211;-77
2022/05/13 03:54:38;;;;;;;3.33;2.80;;;;;;;;;;4899702;29;20244;-77
2022/05/13 03:57:04;;;;;;;3.20;2.90;;;;;;;;;;4899780;29;20218;-77
2022/05/13 03:59:30;;;;;;;3.60;3.20;;;;;;;;;;4916604;29;20225;-77
2022/05/13 04:01:56;;;;;;;4.20;2.87;;;;;;;;;;4899339;29;20186;-77
2022/05/13 04:04:22;;;;;;;3.27;2.83;;;;;;;;;;4884248;29;20250;-77
2022/05/13 04:09:35;;;;;;;3.40;3.10;;;;;;;;;;4902489;29;20262;-77
2022/05/13 04:17:30;;;;;;;3.20;2.90;;;;;;;;;;4902523;29;20189;-77
2022/05/13 04:19:56;;;;;;;5.30;3.57;;;;;;;;;;4899226;29;20225;-77
2022/05/13 04:22:26;;;;;;;3.87;3.17;;;;;;;;;;4899215;29;20269;-77
2022/05/13 04:24:52;;;;;;;3.30;2.90;;;;;;;;;;4899358;29;20182;-77
2022/05/13 04:27:19;;;;;;;3.13;2.83;;;;;;;;;;4884014;29;20279;-77
2022/05/13 04:29:45;;;;;;;3.10;2.90;;;;;;;;;;4884102;29;20205;-77
2022/05/13 04:32:11;;;;;;;3.83;3.10;;;;;;;;;;4915989;29;20281;-77
2022/05/13 04:34:37;;;;;;;3.27;2.80;;;;;;;;;;4916255;29;20174;-77
2022/05/13 04:37:03;;;;;;;4.80;3.43;;;;;;;;;;4883622;29;20241;-77
2022/05/13 04:39:30;;;;;;;3.30;3.00;;;;;;;;;;4916034;29;20206;-77
2022/05/13 04:44:40;;;;;;;4.27;3.17;;;;;;;;;;4902117;29;20193;-77
2022/05/13 04:49:51;;;;;;;3.47;3.17;;;;;;;;;;4916143;29;20244;-77
2022/05/13 04:52:17;;;;;;;6.50;3.60;;;;;;;;;;4898668;29;20237;-77
2022/05/13 04:54:44;;;;;;;6.67;3.47;;;;;;;;;;4883640;29;20660;-78
2022/05/13 04:57:10;;;;;;;4.43;3.80;;;;;;;;;;4899062;29;20603;-78
2022/05/13 04:59:36;;;;;;;5.10;4.60;;;;;;;;;;4899213;29;20202;-78
2022/05/13 05:02:02;;;;;;;5.63;4.10;;;;;;;;;;4883242;29;20559;-78
2022/05/13 05:04:28;;;;;;;4.87;3.60;;;;;;;;;;4899066;29;20190;-78
2022/05/13 05:06:55;;;;;;;4.40;4.00;;;;;;;;;;4883557;29;20222;-78
2022/05/13 05:09:21;;;;;;;4.00;3.70;;;;;;;;;;4899209;29;20271;-77
2022/05/13 05:11:47;;;;;;;6.20;4.00;;;;;;;;;;4898809;29;20206;-78
2022/05/13 05:14:13;;;;;;;3.87;3.50;;;;;;;;;;4883470;29;20240;-78
2022/05/13 05:16:39;;;;;;;4.80;3.80;;;;;;;;;;4915702;29;20175;-78
2022/05/13 05:19:06;;;;;;;5.33;3.70;;;;;;;;;;4898607;29;20218;-78
2022/05/13 05:21:32;;;;;;;4.63;4.07;;;;;;;;;;4883773;29;20182;-78
2022/05/13 05:23:58;;;;;;;4.40;4.00;;;;;;;;;;4883383;29;20281;-83
2022/05/13 05:26:24;;;;;;;4.93;4.00;;;;;;;;;;4883345;29;20218;-77
2022/05/13 05:28:51;;;;;;;4.33;3.67;;;;;;;;;;4883133;29;20226;-78
2022/05/13 05:31:17;;;;;;;4.00;3.60;;;;;;;;;;4883274;29;20234;-77
2022/05/13 05:33:43;;;;;;;4.20;3.80;;;;;;;;;;4898527;29;20175;-77
2022/05/13 05:36:10;;;;;;;6.07;3.80;;;;;;;;;;4898778;29;20269;-77
2022/05/13 05:38:36;;;;;;;6.10;4.30;;;;;;;;;;4899259;29;20198;-78
2022/05/13 05:41:02;;;;;;;6.33;3.57;;;;;;;;;;4899499;29;20192;-80
2022/05/13 05:43:29;;;;;;;5.20;4.23;;;;;;;;;;4899602;29;20182;-80
2022/05/13 05:45:55;;;;;;;4.40;4.00;;;;;;;;;;4899306;29;20641;-79
2022/05/13 05:48:22;;;;;;;6.30;3.80;;;;;;;;;;4916831;29;20194;-80
2022/05/13 05:50:49;;;;;;;6.33;3.87;;;;;;;;;;4916889;29;20202;-78
2022/05/13 05:53:15;;;;;;;3.90;3.60;;;;;;;;;;4899714;29;20272;-79
2022/05/13 05:58:31;;;;;;;5.00;4.10;;;;;;;;;;4906622;29;20630;-78
2022/05/13 06:00:57;;;;;;;5.90;4.30;;;;;;;;;;4888830;29;20182;-78
2022/05/13 06:03:23;;;;;;;4.00;3.60;;;;;;;;;;4887115;29;20629;-77
2022/05/13 06:05:55;;;;;;;5.30;4.30;;;;;;;;;;4887109;29;20209;-78
2022/05/13 06:08:21;;;;;;;5.27;3.90;;;;;;;;;;4919438;29;20166;-77
2022/05/13 06:10:47;;;;;;;5.13;4.37;;;;;;;;;;4886539;29;20581;-77
2022/05/13 06:13:14;;;;;;;6.97;4.30;;;;;;;;;;4886655;29;20182;-78
2022/05/13 06:15:40;;;;;;;5.23;3.87;;;;;;;;;;4902653;29;20269;-80
2022/05/13 06:18:07;;;;;;;4.23;3.83;;;;;;;;;;4886888;29;20214;-78
2022/05/13 06:20:33;;;;;;;4.87;4.00;;;;;;;;;;4910039;23;20229;-77
2022/05/13 06:22:59;;;;;;;6.30;4.50;;;;;;;;;;4901947;29;20182;-77
2022/05/13 06:25:25;;;;;;;6.10;4.03;;;;;;;;;;4902572;29;20274;-78
2022/05/13 06:27:52;;;;;;;5.77;3.90;;;;;;;;;;4902131;29;20652;-77
2022/05/13 06:30:24;;;;;;;5.03;4.10;;;;;;;;;;4902462;29;20724;-77
2022/05/13 06:32:51;;;;;;;6.00;4.10;;;;;;;;;;4901912;29;20186;-77
2022/05/13 06:35:17;;;;;;;5.93;4.63;;;;;;;;;;4918527;29;20173;-77
2022/05/13 06:37:44;;;;;;;5.77;4.00;;;;;;;;;;4901834;29;20175;-77
2022/05/13 06:40:10;;;;;;;5.33;4.60;;;;;;;;;;4902450;29;20218;-76
2022/05/13 06:42:36;;;;;;;5.00;4.00;;;;;;;;;;4885847;29;20182;-76
2022/05/13 06:45:03;;;;;;;5.87;4.07;;;;;;;;;;4918264;29;20189;-76
2022/05/13 06:47:29;;;;;;;4.37;3.70;;;;;;;;;;4901585;29;20189;-76
2022/05/13 06:49:55;;;;;;;6.37;4.20;;;;;;;;;;4901332;29;20202;-76
2022/05/13 06:52:21;;;;;;;7.60;4.40;;;;;;;;;;4900717;29;20198;-76
2022/05/13 06:54:47;;;;;;;9.20;4.33;;;;;;;;;;4885081;29;20186;-76
2022/05/13 06:57:13;;;;;;;4.80;3.90;;;;;;;;;;4884244;29;20182;-76
2022/05/13 06:59:39;;;;;;;6.60;3.93;;;;;;;;;;4885446;29;20200;-77
2022/05/13 07:02:05;;;;;;;4.20;3.80;;;;;;;;;;4885041;29;20238;-76
2022/05/13 07:04:32;;;;;;;9.07;3.80;;;;;;;;;;4900896;29;20236;-76
2022/05/13 07:06:59;;;;;;;5.03;3.67;;;;;;;;;;4900413;29;20185;-78
2022/05/13 07:09:26;;;;;;;5.50;3.60;;;;;;;;;;4900735;29;20634;-78
2022/05/13 07:11:52;;;;;;;5.57;3.20;;;;;;;;;;4900988;29;20296;-78
2022/05/13 07:14:18;;;;;;;5.57;3.30;;;;;;;;;;4900737;29;20174;-79
2022/05/13 07:16:44;;;;;;;6.03;3.27;;;;;;;;;;4901076;29;20221;-78
2022/05/13 07:19:10;;;;;;;6.87;3.40;;;;;;;;;;4885032;29;20217;-78
2022/05/13 07:21:37;;;;;;;4.27;2.50;;;;;;;;;;4900408;29;20206;-77
2022/05/13 07:24:03;;;;;;;3.87;2.07;;;;;;;;;;4900645;29;20179;-78
2022/05/13 07:26:29;;;;;;;2.93;2.40;;;;;;;;;;4884892;29;20190;-77
2022/05/13 07:28:55;;;;;;;4.30;2.20;;;;;;;;;;4884709;29;20271;-77
2022/05/13 07:31:21;;;;;;;4.60;2.30;;;;;;;;;;4884708;29;20210;-77
2022/05/13 07:33:48;;;;;;;3.47;1.90;;;;;;;;;;4884664;29;20277;-77
2022/05/13 07:36:14;;;;;;;5.23;1.90;;;;;;;;;;4900383;29;20181;-77
2022/05/13 07:41:16;;;;;;;2.93;1.70;;;;;;;;;;4884632;29;20187;-77
2022/05/13 07:41:26;;;;;;;8.83;1.90;;;;;;;;;;4902766;29;20194;-77
2022/05/13 07:43:52;;;;;;;4.87;1.80;;;;;;;;;;4884625;29;20191;-77
2022/05/13 07:46:19;;;;;;;4.93;1.77;;;;;;;;;;4900235;29;20178;-77
2022/05/13 07:48:45;;;;;;;3.73;1.80;;;;;;;;;;4917723;29;20571;-78
2022/05/13 07:51:11;;;;;;;4.27;2.00;;;;;;;;;;4899709;29;20309;-78
2022/05/13 07:53:38;;;;;;;2.47;1.80;;;;;;;;;;4884532;29;20206;-78
2022/05/13 07:56:04;;;;;;;4.20;1.90;;;;;;;;;;4900487;29;20186;-78
2022/05/13 07:58:30;;;;;;;2.87;1.63;;;;;;;;;;4899645;29;20178;-77
2022/05/13 08:00:58;;;;;;;4.63;1.67;;;;;;;;;;4899625;29;20181;-77
2022/05/13 08:03:26;;;;;;;4.23;2.10;;;;;;;;;;4916475;29;20183;-77
2022/05/13 08:05:57;;;;;;;3.43;1.90;;;;;;;;;;4916918;29;20175;-77
2022/05/13 08:08:30;;;;;;;5.30;1.87;;;;;;;;;;4899939;29;20189;-78
2022/05/13 08:10:57;;;;;;;4.67;1.97;;;;;;;;;;4884516;29;20221;-78
2022/05/13 08:13:24;;;;;;;3.17;1.60;;;;;;;;;;4899331;29;20642;-78
2022/05/13 08:15:50;;;;;;;2.67;1.67;;;;;;;;;;4899472;29;20641;-78
2022/05/13 08:18:17;;;;;;;4.63;1.70;;;;;;;;;;4899469;29;20193;-78
2022/05/13 08:20:44;;;;;;;2.93;1.50;;;;;;;;;;4884060;29;20218;-78
2022/05/13 08:23:10;;;;;;;3.83;1.67;;;;;;;;;;4916111;29;20609;-78
2022/05/13 08:25:36;;;;;;;2.83;1.60;;;;;;;;;;4883988;29;20281;-78
2022/05/13 08:28:03;;;;;;;6.60;1.67;;;;;;;;;;4883805;29;20183;-77
2022/05/13 08:30:29;;;;;;;5.23;1.80;;;;;;;;;;4899239;29;20248;-77
2022/05/13 08:32:56;;;;;;;2.77;1.40;;;;;;;;;;4883863;29;20612;-77
2022/05/13 08:35:23;;;;;;;2.90;1.50;;;;;;;;;;4884240;29;20190;-77
2022/05/13 08:37:50;;;;;;;2.60;1.40;;;;;;;;;;4899135;29;20182;-77
2022/05/13 08:40:29;;;;;;;3.70;1.37;;;;;;;;;;4899472;29;20584;-79
2022/05/13 08:42:55;;;;;;;3.13;1.60;;;;;;;;;;4899496;29;20241;-78
2022/05/13 08:45:22;;;;;;;3.17;1.40;;;;;;;;;;4899113;29;20186;-78
2022/05/13 08:47:55;;;;;;;3.20;1.50;;;;;;;;;;4916608;29;20528;-78
2022/05/13 08:50:24;;;;;;;1.67;1.30;;;;;;;;;;4899350;29;20208;-78
2022/05/13 08:53:08;;;;;;;2.00;1.50;;;;;;;;;;4899386;29;20693;-78
2022/05/13 08:55:55;;;;;;;3.03;1.70;;;;;;;;;;4899456;29;20193;-78
2022/05/13 08:58:39;;;;;;;3.33;1.40;;;;;;;;;;4886993;29;20227;-78
2022/05/13 09:01:09;;;;;;;3.13;1.60;;;;;;;;;;4899450;29;20245;-78
2022/05/13 09:03:50;;;;;;;3.73;1.80;;;;;;;;;;4899223;29;20181;-78
2022/05/13 09:06:16;;;;;;;2.70;1.50;;;;;;;;;;4899344;29;20178;-78
2022/05/13 09:08:42;;;;;;;2.43;1.60;;;;;;;;;;4899164;29;20693;-78
2022/05/13 09:11:28;;;;;;;5.30;1.60;;;;;;;;;;4899082;29;20565;-78
2022/05/13 09:14:13;;;;;;;3.10;1.70;;;;;;;;;;4898800;29;20249;-78
2022/05/13 09:16:42;;;;;;;3.07;1.90;;;;;;;;;;4898881;29;20245;-78
2022/05/13 09:19:21;;;;;;;3.40;1.97;;;;;;;;;;4915895;29;20211;-78
2022/05/13 09:21:47;;;;;;;4.43;1.70;;;;;;;;;;4898846;29;20232;-78
2022/05/13 09:24:13;;;;;;;4.13;1.80;;;;;;;;;;4883898;29;20625;-78
2022/05/13 09:26:41;;;;;;;3.07;1.70;;;;;;;;;;4898785;29;20186;-78
2022/05/13 09:29:11;;;;;;;4.47;1.80;;;;;;;;;;4884245;29;20305;-78
2022/05/13 09:31:41;;;;;;;4.47;1.80;;;;;;;;;;4919433;29;20209;-78
2022/05/13 09:34:25;;;;;;;3.13;1.70;;;;;;;;;;4919516;29;20182;-78
2022/05/13 09:36:51;;;;;;;4.33;1.63;;;;;;;;;;4919498;29;20561;-78
2022/05/13 09:39:22;;;;;;;4.07;1.90;;;;;;;;;;4919159;29;20684;-78
2022/05/13 09:41:49;;;;;;;7.50;1.97;;;;;;;;;;4902381;29;20217;-78
2022/05/13 09:44:23;;;;;;;3.80;1.60;;;;;;;;;;4902466;29;20170;-78
2022/05/13 09:46:53;;;;;;;2.57;1.67;;;;;;;;;;4919313;29;20174;-78
2022/05/13 09:49:36;;;;;;;3.63;1.70;;;;;;;;;;4902275;29;20257;-78
2022/05/13 09:52:09;;;;;;;2.43;1.90;;;;;;;;;;4902083;29;20556;-79
2022/05/13 09:54:37;;;;;;;3.90;1.83;;;;;;;;;;4919619;29;20190;-78
2022/05/13 09:57:11;;;;;;;4.60;1.80;;;;;;;;;;4902368;29;20183;-78
2022/05/13 09:59:39;;;;;;;5.33;1.70;;;;;;;;;;4903135;29;20241;-78
2022/05/13 10:02:26;;;;;;;3.60;1.80;;;;;;;;;;4902892;29;20218;-78
2022/05/13 10:04:56;;;;;;;3.97;1.80;;;;;;;;;;4903013;29;20214;-78
2022/05/13 10:07:24;;;;;;;7.27;1.97;;;;;;;;;;4903377;29;20177;-78
2022/05/13 10:15:31;;;;;;;3.67;1.50;;;;;;;;;;4919390;29;20590;-77
2022/05/13 10:18:02;;;;;;;5.33;1.70;;;;;;;;;;4902183;29;20183;-77
2022/05/13 10:20:31;;;;;;;6.87;2.07;;;;;;;;;;4902122;29;20270;-78
2022/05/13 10:23:19;;;;;;;3.83;2.10;;;;;;;;;;4902144;29;20230;-78
2022/05/13 10:26:03;;;;;;;2.97;1.70;;;;;;;;;;4902538;29;20174;-78
2022/05/13 10:28:35;;;;;;;3.10;2.13;;;;;;;;;;4920732;29;20253;-78
2022/05/13 10:31:04;;;;;;;4.50;1.93;;;;;;;;;;4903881;29;20186;-78
2022/05/13 10:33:50;;;;;;;4.53;1.83;;;;;;;;;;4904011;29;20190;-78
2022/05/13 10:36:23;;;;;;;4.03;1.60;;;;;;;;;;4888900;29;20257;-78
2022/05/13 10:38:54;;;;;;;3.90;1.90;;;;;;;;;;4903866;29;20265;-78
2022/05/13 10:41:49;;;;;;;4.63;1.87;;;;;;;;;;4903307;29;20206;-79
2022/05/13 10:47:05;;;;;;;4.77;1.83;;;;;;;;;;4920040;29;20253;-78
2022/05/13 10:49:35;;;;;;;4.00;1.77;;;;;;;;;;4920110;29;20668;-78
2022/05/13 10:52:07;;;;;;;4.80;1.87;;;;;;;;;;4903484;29;20179;-78
2022/05/13 10:54:33;;;;;;;5.03;2.23;;;;;;;;;;4903694;29;20209;-78
2022/05/13 10:57:06;;;;;;;4.33;2.00;;;;;;;;;;4903524;29;20175;-78
2022/05/13 10:59:32;;;;;;;5.50;1.70;;;;;;;;;;4902882;29;20206;-78
2022/05/13 11:02:07;;;;;;;4.00;1.83;;;;;;;;;;4903052;29;20210;-78
2022/05/13 11:04:52;;;;;;;2.53;1.70;;;;;;;;;;4919231;29;20189;-78
2022/05/13 11:07:20;;;;;;;4.50;1.90;;;;;;;;;;4919573;29;20206;-79
2022/05/13 11:09:46;;;;;;;3.77;2.03;;;;;;;;;;4919683;29;20217;-78
2022/05/13 11:12:19;;;;;;;3.10;1.70;;;;;;;;;;4902727;29;20179;-78
2022/05/13 11:14:58;;;;;;;3.50;1.93;;;;;;;;;;4902747;29;20182;-78
2022/05/13 11:17:43;;;;;;;2.87;1.73;;;;;;;;;;4903397;29;20186;-78
2022/05/13 11:20:12;;;;;;;3.57;1.50;;;;;;;;;;4902355;29;20596;-78
2022/05/13 11:22:44;;;;;;;2.47;1.60;;;;;;;;;;4902490;29;20228;-78
2022/05/13 11:28:09;;;;;;;2.53;1.57;;;;;;;;;;4919658;29;20165;-79
2022/05/13 11:30:48;;;;;;;2.43;1.53;;;;;;;;;;4902333;29;20208;-78
2022/05/13 11:33:20;;;;;;;2.10;1.50;;;;;;;;;;4903253;29;20188;-79
2022/05/13 11:35:46;;;;;;;3.57;1.50;;;;;;;;;;4903420;29;20186;-79
2022/05/13 11:38:12;;;;;;;2.87;1.37;;;;;;;;;;4902813;29;20182;-78
2022/05/13 11:40:46;;;;;;;3.43;1.30;;;;;;;;;;4902265;29;20203;-78
2022/05/13 11:43:31;;;;;;;2.57;1.33;;;;;;;;;;4902299;29;20182;-78
2022/05/13 11:46:00;;;;;;;4.10;1.60;;;;;;;;;;4902650;29;20189;-79
2022/05/13 11:48:28;;;;;;;2.47;1.40;;;;;;;;;;4901938;29;20190;-78
2022/05/13 11:51:02;;;;;;;2.87;1.40;;;;;;;;;;4901908;29;20190;-79
2022/05/13 11:53:46;;;;;;;2.03;1.20;;;;;;;;;;4901201;29;20253;-78
2022/05/13 11:56:16;;;;;;;1.77;1.20;;;;;;;;;;4901064;29;20647;-78
2022/05/13 11:58:47;;;;;;;2.73;1.40;;;;;;;;;;4918608;29;20186;-78
2022/05/13 12:01:15;;;;;;;1.87;1.30;;;;;;;;;;4901657;29;20297;-78
2022/05/13 12:03:42;;;;;;;2.20;1.30;;;;;;;;;;4901403;29;20178;-78
2022/05/13 12:06:10;;;;;;;2.83;1.20;;;;;;;;;;4918160;29;20178;-78
2022/05/13 12:08:57;;;;;;;2.10;1.40;;;;;;;;;;4918090;29;20177;-78
2022/05/13 12:11:23;;;;;;;2.80;1.17;;;;;;;;;;4886501;29;20190;-78
2022/05/13 12:14:09;;;;;;;2.83;1.13;;;;;;;;;;4918135;29;20178;-78
2022/05/13 12:16:36;;;;;;;2.53;1.13;;;;;;;;;;4918907;29;20158;-78
2022/05/13 12:19:09;;;;;;;3.00;1.60;;;;;;;;;;4902556;29;20214;-78
2022/05/13 12:21:47;;;;;;;3.13;1.70;;;;;;;;;;4901021;29;20237;-78
2022/05/13 12:24:13;;;;;;;3.33;1.30;;;;;;;;;;4885674;29;20182;-78
2022/05/13 12:26:51;;;;;;;1.37;1.17;;;;;;;;;;4900824;29;20181;-78
2022/05/13 18:19:04;;;;;;;8.20;5.93;;;;;;;;;;6077220;23;20186;-76
2022/05/13 18:21:30;;;;;;;2.73;1.47;;;;;;;;;;4900766;29;20226;-76
2022/05/13 18:23:56;;;;;;;3.88;1.50;;;;;;;;;;4901410;29;20217;-76
2022/05/13 18:26:22;;;;;;;4.07;1.27;;;;;;;;;;4886403;29;20186;-77
2022/05/13 18:28:49;;;;;;;3.03;1.40;;;;;;;;;;4901275;29;20178;-77
2022/05/13 18:31:15;;;;;;;1.90;1.23;;;;;;;;;;4885844;29;20245;-77
2022/05/13 18:33:41;;;;;;;2.87;1.30;;;;;;;;;;4901077;29;20186;-77
2022/05/13 18:36:08;;;;;;;2.63;1.33;;;;;;;;;;4902200;29;20178;-79
2022/05/13 18:38:34;;;;;;;3.17;1.77;;;;;;;;;;4887223;29;20285;-79
2022/05/13 18:46:32;;;;;;;1.93;1.43;;;;;;;;;;4905866;29;20193;-79
2022/05/13 18:48:59;;;;;;;2.53;1.63;;;;;;;;;;4902378;29;20179;-79
2022/05/13 18:51:25;;;;;;;2.83;1.43;;;;;;;;;;4902451;29;20194;-79
2022/05/13 18:53:51;;;;;;;2.30;1.50;;;;;;;;;;4886984;29;20190;-79
2022/05/13 18:56:19;;;;;;;2.10;1.30;;;;;;;;;;4902469;29;20202;-79
2022/05/13 18:58:45;;;;;;;3.13;1.43;;;;;;;;;;4886968;29;20198;-79
2022/05/13 19:01:11;;;;;;;2.43;1.13;;;;;;;;;;4886754;29;20257;-77
2022/05/13 19:03:37;;;;;;;2.53;1.30;;;;;;;;;;4917661;29;20182;-77
2022/05/13 19:06:04;;;;;;;4.43;1.30;;;;;;;;;;4885146;29;20556;-77
2022/05/13 19:08:31;;;;;;;1.40;1.10;;;;;;;;;;4900943;29;20206;-77
2022/05/13 19:10:58;;;;;;;6.47;1.30;;;;;;;;;;4900839;29;20203;-77
2022/05/13 19:13:25;;;;;;;2.30;1.20;;;;;;;;;;4900509;29;20182;-77
2022/05/13 19:15:53;;;;;;;2.17;1.37;;;;;;;;;;4917566;29;20581;-77
2022/05/13 19:18:21;;;;;;;1.40;1.13;;;;;;;;;;4900598;29;20178;-77
2022/05/13 19:20:47;;;;;;;2.30;1.30;;;;;;;;;;4900281;29;20220;-77
2022/05/13 19:23:13;;;;;;;2.10;1.30;;;;;;;;;;4884920;29;20245;-77
2022/05/13 19:25:39;;;;;;;2.60;1.30;;;;;;;;;;4884849;29;20649;-77
2022/05/13 19:28:10;;;;;;;3.23;1.37;;;;;;;;;;4884860;29;20178;-77
2022/05/13 19:30:36;;;;;;;2.33;1.20;;;;;;;;;;4885318;29;20207;-77
2022/05/13 19:33:04;;;;;;;3.03;1.37;;;;;;;;;;4884577;29;20195;-77
2022/05/13 19:35:31;;;;;;;1.40;1.27;;;;;;;;;;4917229;29;20178;-77
2022/05/13 19:37:57;;;;;;;2.57;1.33;;;;;;;;;;4900405;29;20185;-77
2022/05/13 19:40:23;;;;;;;2.90;1.30;;;;;;;;;;4916941;29;20197;-77
2022/05/13 19:42:49;;;;;;;4.43;1.40;;;;;;;;;;4900043;29;20214;-77
2022/05/13 19:45:17;;;;;;;2.40;1.30;;;;;;;;;;4884599;29;20186;-77
2022/05/13 19:47:44;;;;;;;2.30;1.20;;;;;;;;;;4884489;29;20190;-77
2022/05/13 19:50:10;;;;;;;1.73;1.27;;;;;;;;;;4884462;29;20252;-77
2022/05/13 19:52:37;;;;;;;1.60;1.37;;;;;;;;;;4899633;29;20641;-77
2022/05/13 19:55:04;;;;;;;4.00;1.40;;;;;;;;;;4899786;29;20234;-77
2022/05/13 19:57:30;;;;;;;1.67;1.20;;;;;;;;;;4899825;29;20187;-77
2022/05/13 19:59:56;;;;;;;2.40;1.30;;;;;;;;;;4899785;29;20198;-78
2022/05/13 20:02:22;;;;;;;3.03;1.70;;;;;;;;;;4884045;29;20210;-77
2022/05/13 20:13:02;;;;;;;2.10;1.30;;;;;;;;;;4916295;29;20202;-77
2022/05/13 20:15:28;;;;;;;3.67;1.30;;;;;;;;;;4883940;29;20189;-77
2022/05/13 20:17:54;;;;;;;2.73;1.40;;;;;;;;;;4882883;29;20187;-77
2022/05/13 20:23:05;;;;;;;2.43;1.50;;;;;;;;;;4916232;29;20205;-77
2022/05/13 20:25:31;;;;;;;2.77;1.37;;;;;;;;;;4883899;29;20637;-77
2022/05/13 20:27:58;;;;;;;1.93;1.20;;;;;;;;;;4884188;29;20720;-77
2022/05/13 20:30:24;;;;;;;3.20;1.60;;;;;;;;;;4883304;29;20226;-77
2022/05/13 20:32:51;;;;;;;2.13;1.60;;;;;;;;;;4899296;29;20700;-77
2022/05/13 20:35:17;;;;;;;1.83;1.27;;;;;;;;;;4899329;29;20201;-77
2022/05/13 20:37:43;;;;;;;2.10;1.20;;;;;;;;;;4883686;29;20556;-77
2022/05/13 20:40:10;;;;;;;1.80;1.30;;;;;;;;;;4899079;29;20571;-77
2022/05/13 20:42:38;;;;;;;2.67;1.53;;;;;;;;;;4899022;29;20290;-77
2022/05/13 20:45:04;;;;;;;2.30;1.50;;;;;;;;;;4899181;29;20217;-77
2022/05/13 20:47:30;;;;;;;2.73;1.37;;;;;;;;;;4883770;29;20189;-77
2022/05/13 20:49:56;;;;;;;2.07;1.43;;;;;;;;;;4915894;29;20199;-77
2022/05/13 20:52:22;;;;;;;2.27;1.50;;;;;;;;;;4883393;29;20198;-77
2022/05/13 20:54:49;;;;;;;5.43;1.70;;;;;;;;;;4883833;29;20190;-77
2022/05/13 20:57:17;;;;;;;2.80;1.50;;;;;;;;;;4899291;29;20182;-77
2022/05/13 20:59:43;;;;;;;2.53;1.67;;;;;;;;;;4898916;29;20729;-77
2022/05/13 21:02:09;;;;;;;3.20;1.70;;;;;;;;;;4898824;29;20261;-77
2022/05/13 21:04:47;;;;;;;1.83;1.50;;;;;;;;;;4883459;29;20277;-77
2022/05/13 21:07:14;;;;;;;2.00;1.40;;;;;;;;;;4885176;29;20182;-77
2022/05/13 21:09:40;;;;;;;2.27;1.50;;;;;;;;;;4899445;29;20604;-77
2022/05/13 21:12:07;;;;;;;3.00;1.50;;;;;;;;;;4883312;29;20186;-77
2022/05/13 21:14:33;;;;;;;1.70;1.50;;;;;;;;;;4899007;29;20190;-77
2022/05/13 21:16:59;;;;;;;3.20;1.57;;;;;;;;;;4898845;29;20189;-77
2022/05/13 21:19:25;;;;;;;2.60;1.70;;;;;;;;;;4898601;29;20233;-77
2022/05/13 21:21:51;;;;;;;4.33;1.77;;;;;;;;;;4883226;29;20214;-77
2022/05/13 21:24:17;;;;;;;2.73;1.80;;;;;;;;;;4898789;29;20185;-77
2022/05/13 21:26:43;;;;;;;1.73;1.60;;;;;;;;;;4886484;29;20182;-77